Time;durP1;ratioP1;P1;durP2;ratioP2;P2;SDS_P1;SDS_P2;PMS_P1;PMS_P2;Temp;Humidity;BMP_temperature;BMP_pressure;BME280_temperature;BME280_humidity;BME280_pressure;Samples;Min_cycle;Max_cycle;Signal;HPM_P1;HPM_P2
2023/05/22 00:01:57;;;;;;;36.22;26.58;;;;;;;13.88;100.00;101335.50;5094227;28;20038;-56
2023/05/22 00:04:22;;;;;;;37.92;26.65;;;;;;;13.92;100.00;101336.47;5093439;28;20536;-57
2023/05/22 00:06:48;;;;;;;35.38;26.85;;;;;;;13.87;100.00;101338.06;5094218;28;20056;-56
2023/05/22 00:09:14;;;;;;;35.97;27.17;;;;;;;13.78;100.00;101339.59;5093291;28;20046;-56
2023/05/22 00:11:39;;;;;;;37.58;26.35;;;;;;;13.81;100.00;101334.50;5093274;28;20400;-56
2023/05/22 00:14:04;;;;;;;37.17;27.38;;;;;;;13.77;100.00;101343.00;5094097;28;20095;-57
2023/05/22 00:16:30;;;;;;;36.78;27.20;;;;;;;13.70;100.00;101333.34;5093632;28;20486;-57
2023/05/22 00:18:56;;;;;;;35.70;27.58;;;;;;;13.64;100.00;101339.22;5092967;28;20461;-56
2023/05/22 00:21:23;;;;;;;35.00;27.08;;;;;;;13.61;100.00;101335.72;5093514;28;20391;-57
2023/05/22 00:23:48;;;;;;;38.53;29.60;;;;;;;13.60;100.00;101334.81;5093974;28;20028;-56
2023/05/22 00:26:17;;;;;;;37.13;26.92;;;;;;;13.54;100.00;101337.25;5093248;28;20281;-57
2023/05/22 00:28:43;;;;;;;39.97;28.73;;;;;;;13.58;100.00;101335.63;5094046;28;20106;-56
2023/05/22 00:31:08;;;;;;;38.53;28.05;;;;;;;13.56;100.00;101332.13;5093931;28;20123;-56
2023/05/22 00:33:33;;;;;;;38.28;29.23;;;;;;;13.53;100.00;101326.84;5093053;28;20028;-57
2023/05/22 00:35:59;;;;;;;34.83;28.10;;;;;;;13.47;100.00;101333.63;5093718;28;20032;-56
2023/05/22 00:38:31;;;;;;;38.65;29.17;;;;;;;13.43;100.00;101331.81;5093457;28;20024;-56
2023/05/22 00:40:57;;;;;;;42.67;29.42;;;;;;;13.39;100.00;101334.28;5092729;28;20468;-57
2023/05/22 00:43:22;;;;;;;40.33;29.95;;;;;;;13.39;100.00;101324.81;5093080;28;20028;-56
2023/05/22 00:45:47;;;;;;;42.08;30.80;;;;;;;13.46;100.00;101323.25;5093447;28;20368;-56
2023/05/22 00:48:14;;;;;;;39.65;32.38;;;;;;;13.38;100.00;101320.47;5092937;28;20059;-57
2023/05/22 00:50:40;;;;;;;40.35;30.17;;;;;;;13.39;100.00;101326.50;5093150;28;20375;-56
2023/05/22 00:53:06;;;;;;;41.45;30.90;;;;;;;13.39;100.00;101319.63;5093482;28;20107;-56
2023/05/22 00:55:31;;;;;;;38.72;30.27;;;;;;;13.35;100.00;101322.94;5092529;28;20030;-56
2023/05/22 00:57:56;;;;;;;39.95;31.50;;;;;;;13.36;100.00;101319.50;5093258;28;20031;-56
2023/05/22 01:00:22;;;;;;;41.35;31.20;;;;;;;13.32;100.00;101322.84;5092844;28;20068;-57
2023/05/22 01:02:47;;;;;;;40.70;31.38;;;;;;;13.29;100.00;101331.41;5092376;28;20028;-56
2023/05/22 01:05:16;;;;;;;42.70;29.55;;;;;;;13.28;100.00;101323.63;5093381;28;20476;-56
2023/05/22 01:07:43;;;;;;;40.47;30.52;;;;;;;13.23;100.00;101320.91;5092533;28;20048;-56
2023/05/22 01:10:09;;;;;;;40.80;30.33;;;;;;;13.21;100.00;101326.88;5093266;28;20111;-57
2023/05/22 01:13:00;;;;;;;38.15;30.10;;;;;;;13.17;100.00;101319.03;5092712;28;20103;-57
2023/05/22 01:15:40;;;;;;;43.22;31.95;;;;;;;13.18;100.00;101315.63;5092190;28;20085;-56
2023/05/22 01:18:38;;;;;;;41.22;31.95;;;;;;;13.21;100.00;101319.09;5092973;28;20044;-56
2023/05/22 01:21:10;;;;;;;42.67;33.30;;;;;;;13.24;100.00;101309.72;5092692;28;20036;-57
2023/05/22 01:24:12;;;;;;;40.65;32.83;;;;;;;13.26;100.00;101317.50;5092077;28;20034;-57
2023/05/22 01:27:00;;;;;;;50.72;35.40;;;;;;;13.26;100.00;101309.75;5050163;28;20115;-56
2023/05/22 01:29:46;;;;;;;47.42;33.95;;;;;;;13.20;100.00;101317.38;5091790;28;20362;-57
2023/05/22 01:32:21;;;;;;;47.55;33.83;;;;;;;13.13;100.00;101312.03;5092966;28;20463;-57
2023/05/22 01:34:55;;;;;;;44.45;35.25;;;;;;;13.23;100.00;101312.25;5093076;28;20074;-56
2023/05/22 01:37:22;;;;;;;48.67;34.28;;;;;;;13.16;100.00;101312.09;5091922;28;20027;-56
2023/05/22 01:39:50;;;;;;;47.80;36.10;;;;;;;13.14;100.00;101318.06;5092735;28;20032;-56
2023/05/22 01:42:16;;;;;;;47.42;34.72;;;;;;;13.11;100.00;101313.69;5092765;28;20485;-56
2023/05/22 01:44:41;;;;;;;45.80;35.25;;;;;;;13.08;100.00;101313.63;5092120;28;20035;-56
2023/05/22 01:47:07;;;;;;;44.03;32.42;;;;;;;12.98;100.00;101309.03;5092862;28;20024;-56
2023/05/22 01:49:33;;;;;;;43.00;33.47;;;;;;;13.02;100.00;101308.28;5092562;28;20085;-56
2023/05/22 01:52:21;;;;;;;40.78;35.10;;;;;;;13.07;100.00;101311.00;5092142;28;20468;-57
2023/05/22 01:55:08;;;;;;;43.67;34.38;;;;;;;12.99;100.00;101311.66;5092864;28;20028;-56
2023/05/22 01:57:42;;;;;;;47.60;35.40;;;;;;;12.95;100.00;101309.81;5091769;28;20027;-57
2023/05/22 02:00:12;;;;;;;46.05;35.22;;;;;;;12.88;100.00;101305.31;5092743;28;20027;-56
2023/05/22 02:02:41;;;;;;;51.90;38.10;;;;;;;12.88;100.00;101312.19;5092353;28;20033;-56
2023/05/22 02:05:09;;;;;;;48.25;38.17;;;;;;;12.80;100.00;101312.00;5091871;28;20121;-56
2023/05/22 02:07:38;;;;;;;52.03;39.38;;;;;;;12.84;100.00;101312.09;5092659;28;20032;-56
2023/05/22 02:10:06;;;;;;;53.65;39.80;;;;;;;12.87;100.00;101303.53;5092651;28;20016;-56
2023/05/22 02:12:32;;;;;;;;;;;;;;;12.94;100.00;101312.38;5091766;28;20027;-57
2023/05/22 02:14:57;;;;;;;51.35;38.80;;;;;;;12.83;100.00;101306.88;5092670;28;19912;-56
2023/05/22 02:17:23;;;;;;;51.55;39.75;;;;;;;12.85;100.00;101306.09;5091920;28;20048;-57
2023/05/22 02:19:48;;;;;;;51.15;39.20;;;;;;;12.79;100.00;101307.66;5091660;28;20521;-56
2023/05/22 02:22:13;;;;;;;54.10;41.75;;;;;;;12.81;100.00;101306.00;5092388;28;20088;-56
2023/05/22 02:24:42;;;;;;;54.90;42.40;;;;;;;12.76;100.00;101305.84;5092247;28;20464;-56
2023/05/22 02:27:08;;;;;;;55.08;42.35;;;;;;;12.78;100.00;101295.53;5091656;28;20032;-56
2023/05/22 02:29:33;;;;;;;60.15;44.83;;;;;;;12.81;100.00;101299.09;5092053;28;20472;-57
2023/05/22 02:31:59;;;;;;;57.03;44.00;;;;;;;12.86;100.00;101291.47;5092248;28;20036;-57
2023/05/22 02:34:25;;;;;;;58.03;44.60;;;;;;;12.85;100.00;101288.00;5094795;28;20091;-56
2023/05/22 02:36:51;;;;;;;59.45;45.70;;;;;;;12.87;100.00;101289.75;5096161;28;20094;-56
2023/05/22 02:39:19;;;;;;;56.58;44.70;;;;;;;12.84;100.00;101290.53;5094822;28;20447;-56
2023/05/22 02:41:44;;;;;;;57.67;44.80;;;;;;;12.85;100.00;101294.88;5096004;28;20036;-56
2023/05/22 02:44:10;;;;;;;57.45;44.15;;;;;;;12.85;100.00;101285.41;5095583;28;20024;-57
2023/05/22 02:46:35;;;;;;;56.20;43.70;;;;;;;12.84;100.00;101283.66;5094664;28;20073;-57
2023/05/22 02:49:00;;;;;;;56.22;43.42;;;;;;;12.80;100.00;101289.56;5095611;28;20028;-57
2023/05/22 02:51:26;;;;;;;54.22;44.05;;;;;;;12.85;100.00;101284.53;5095540;28;20028;-57
2023/05/22 02:53:52;;;;;;;52.63;42.60;;;;;;;12.84;100.00;101285.38;5095034;28;20028;-57
2023/05/22 02:56:17;;;;;;;52.97;41.42;;;;;;;12.73;100.00;101284.19;5095312;28;20035;-56
2023/05/22 02:58:43;;;;;;;57.75;44.20;;;;;;;12.68;100.00;101278.91;5095442;28;20020;-57
2023/05/22 03:01:09;;;;;;;53.65;41.25;;;;;;;12.65;100.00;101277.13;5095045;28;20020;-56
2023/05/22 03:03:35;;;;;;;54.30;42.55;;;;;;;12.60;100.00;101283.88;5095011;28;20463;-56
2023/05/22 03:06:00;;;;;;;58.00;43.78;;;;;;;12.58;100.00;101287.25;5095307;28;20024;-56
2023/05/22 03:08:27;;;;;;;58.15;43.47;;;;;;;12.59;100.00;101273.44;5094340;28;20020;-56
2023/05/22 03:10:53;;;;;;;61.80;45.17;;;;;;;12.59;100.00;101271.75;5095503;28;20048;-56
2023/05/22 03:13:18;;;;;;;58.38;44.45;;;;;;;12.58;100.00;101277.75;5094940;28;20112;-56
2023/05/22 03:15:44;;;;;;;52.65;43.80;;;;;;;12.54;100.00;101272.44;5094709;28;20039;-56
2023/05/22 03:18:10;;;;;;;55.78;45.33;;;;;;;12.55;100.00;101274.22;5095074;28;20032;-57
2023/05/22 03:20:35;;;;;;;57.15;45.83;;;;;;;12.45;100.00;101268.78;5094821;28;20571;-56
2023/05/22 03:23:01;;;;;;;52.38;43.35;;;;;;;12.44;100.00;101269.59;5094180;28;20024;-56
2023/05/22 03:25:26;;;;;;;54.20;44.92;;;;;;;12.38;100.00;101272.00;5094689;28;20028;-57
2023/05/22 03:27:51;;;;;;;52.88;43.88;;;;;;;12.31;100.00;101273.53;5094978;28;20034;-56
2023/05/22 03:30:16;;;;;;;53.15;42.85;;;;;;;12.31;100.00;101272.69;5094051;28;20031;-56
2023/05/22 03:32:42;;;;;;;54.30;44.30;;;;;;;12.18;100.00;101271.44;5094882;28;20034;-57
2023/05/22 03:35:08;;;;;;;69.32;47.70;;;;;;;12.23;100.00;101271.59;5094807;28;20114;-57
2023/05/22 03:37:33;;;;;;;57.28;48.63;;;;;;;12.15;100.00;101273.94;5093960;28;20104;-56
2023/05/22 03:39:58;;;;;;;58.50;46.72;;;;;;;12.11;100.00;101275.56;5094708;28;20369;-56
2023/05/22 03:42:24;;;;;;;63.17;47.67;;;;;;;12.14;100.00;101272.19;5093804;28;20514;-56
2023/05/22 03:44:49;;;;;;;65.82;50.05;;;;;;;12.10;100.00;101268.63;5094324;28;20362;-56
2023/05/22 03:47:15;;;;;;;62.92;48.25;;;;;;;12.03;100.00;101258.91;5094537;28;20391;-56
2023/05/22 03:49:40;;;;;;;61.47;48.20;;;;;;;12.00;100.00;101266.59;5093975;28;20054;-56
2023/05/22 03:52:08;;;;;;;62.55;48.60;;;;;;;12.10;100.00;101272.94;5094607;28;20028;-56
2023/05/22 03:54:33;;;;;;;62.35;50.03;;;;;;;12.03;100.00;101269.25;5094202;28;20028;-56
2023/05/22 03:56:59;;;;;;;63.38;49.95;;;;;;;12.00;100.00;101266.59;5093487;28;20076;-56
2023/05/22 03:59:24;;;;;;;56.90;47.08;;;;;;;11.98;100.00;101266.56;5093991;28;20392;-56
2023/05/22 04:01:50;;;;;;;57.60;47.70;;;;;;;11.95;100.00;101266.44;5094196;28;20455;-56
2023/05/22 04:04:15;;;;;;;60.65;47.58;;;;;;;11.94;100.00;101261.19;5093228;28;20071;-56
2023/05/22 04:06:43;;;;;;;67.35;51.10;;;;;;;11.92;100.00;101260.28;5094494;28;20024;-56
2023/05/22 04:09:12;;;;;;;66.60;49.72;;;;;;;11.93;100.00;101267.19;5094379;28;20073;-56
2023/05/22 04:11:41;;;;;;;68.47;49.03;;;;;;;11.92;100.00;101265.47;5093126;28;20026;-56
2023/05/22 04:14:06;;;;;;;70.72;54.03;;;;;;;11.92;100.00;101266.31;5094254;28;20103;-56
2023/05/22 04:16:32;;;;;;;80.40;54.20;;;;;;;11.92;100.00;101270.63;5093939;28;20109;-56
2023/05/22 04:18:57;;;;;;;69.82;53.72;;;;;;;11.96;100.00;101272.50;5093249;28;20071;-56
2023/05/22 04:21:23;;;;;;;69.95;53.92;;;;;;;12.04;100.00;101272.75;5093678;28;20023;-56
2023/05/22 04:23:49;;;;;;;72.35;55.88;;;;;;;12.01;100.00;101270.94;5093741;28;20028;-56
2023/05/22 04:26:16;;;;;;;72.65;55.95;;;;;;;12.01;100.00;101276.09;5093025;28;20020;-56
2023/05/22 04:28:44;;;;;;;76.38;57.08;;;;;;;12.00;100.00;101274.34;5093680;28;20464;-56
2023/05/22 04:31:12;;;;;;;80.50;56.17;;;;;;;12.02;100.00;101277.88;5093994;28;20027;-56
2023/05/22 04:33:38;;;;;;;71.75;55.25;;;;;;;12.07;100.00;101276.28;5092691;28;20447;-56
2023/05/22 04:36:05;;;;;;;80.57;54.45;;;;;;;12.06;100.00;101284.88;5093734;28;20028;-56
2023/05/22 04:38:35;;;;;;;81.03;57.23;;;;;;;12.12;100.00;101290.22;5093413;28;20050;-56
2023/05/22 04:41:02;;;;;;;76.35;54.60;;;;;;;12.14;100.00;101296.31;5092755;28;20468;-56
2023/05/22 04:43:28;;;;;;;76.67;54.63;;;;;;;12.16;100.00;101293.75;5093400;28;20039;-55
2023/05/22 04:45:55;;;;;;;80.63;55.33;;;;;;;12.17;100.00;101298.09;5092952;28;20274;-56
2023/05/22 04:48:21;;;;;;;79.05;53.30;;;;;;;12.16;100.00;101299.81;5093143;28;20505;-56
2023/05/22 04:50:47;;;;;;;72.72;54.53;;;;;;;12.21;100.00;101306.84;5093501;28;20407;-56
2023/05/22 04:53:13;;;;;;;77.07;55.05;;;;;;;12.24;100.00;101304.31;5092703;28;20036;-56
2023/05/22 04:55:38;;;;;;;77.32;53.90;;;;;;;12.26;100.00;101308.72;5092552;28;20023;-55
2023/05/22 04:58:04;;;;;;;78.78;54.05;;;;;;;12.28;100.00;101301.03;5093490;28;20047;-55
2023/05/22 05:00:30;;;;;;;81.28;55.38;;;;;;;12.38;100.00;101304.75;5092374;28;20012;-55
2023/05/22 05:02:56;;;;;;;72.18;52.20;;;;;;;12.37;100.00;101305.56;5093075;28;20034;-56
2023/05/22 05:05:21;;;;;;;70.68;52.17;;;;;;;12.46;100.00;101305.84;5092996;28;20375;-56
2023/05/22 05:07:48;;;;;;;80.53;53.17;;;;;;;12.46;100.00;101306.72;5092543;28;20476;-56
2023/05/22 05:10:13;;;;;;;72.32;48.55;;;;;;;12.42;100.00;101304.00;5092936;28;20534;-56
2023/05/22 05:12:39;;;;;;;76.75;50.88;;;;;;;12.36;100.00;101304.72;5092937;28;20021;-56
2023/05/22 05:15:05;;;;;;;76.65;51.65;;;;;;;12.42;100.00;101315.22;5092501;28;20398;-56
2023/05/22 05:17:30;;;;;;;78.35;52.85;;;;;;;12.47;100.00;101317.94;5092602;28;20088;-55
2023/05/22 05:19:55;;;;;;;83.93;54.75;;;;;;;12.52;100.00;101322.44;5093123;28;20475;-56
2023/05/22 05:22:21;;;;;;;81.45;52.78;;;;;;;12.56;100.00;101319.91;5091862;28;20080;-56
2023/05/22 05:24:46;;;;;;;89.28;53.65;;;;;;;12.52;100.00;101313.78;5092952;28;20024;-56
2023/05/22 05:27:12;;;;;;;80.18;50.97;;;;;;;12.56;100.00;101322.50;5092892;28;20063;-56
2023/05/22 05:29:38;;;;;;;88.80;52.00;;;;;;;12.62;100.00;101322.69;5091851;28;20020;-56
2023/05/22 05:32:03;;;;;;;86.15;53.50;;;;;;;12.66;100.00;101314.19;5092985;28;20024;-56
2023/05/22 05:34:29;;;;;;;86.30;52.35;;;;;;;12.77;100.00;101317.94;5092685;28;20054;-55
2023/05/22 05:36:56;;;;;;;90.18;52.28;;;;;;;12.78;100.00;101319.72;5092028;28;20036;-56
2023/05/22 05:39:21;;;;;;;83.82;51.08;;;;;;;12.91;100.00;101309.69;5092543;28;20111;-56
2023/05/22 05:41:46;;;;;;;77.85;48.70;;;;;;;13.00;100.00;101316.00;5093014;28;20074;-56
2023/05/22 05:44:11;;;;;;;83.35;49.75;;;;;;;12.99;100.00;101318.56;5092199;28;20108;-56
2023/05/22 05:46:37;;;;;;;74.43;47.88;;;;;;;13.03;100.00;101322.97;5092429;28;20032;-56
2023/05/22 05:49:09;;;;;;;80.95;50.00;;;;;;;13.19;100.00;101326.84;5092038;28;20024;-56
2023/05/22 05:51:36;;;;;;;74.63;49.28;;;;;;;13.29;100.00;101322.78;5092529;28;20093;-56
2023/05/22 05:54:01;;;;;;;66.30;46.17;;;;;;;13.32;100.00;101317.69;5092679;28;20107;-56
2023/05/22 05:56:26;;;;;;;69.68;46.47;;;;;;;13.44;100.00;101325.81;5091807;28;20099;-56
2023/05/22 05:58:52;;;;;;;71.05;46.85;;;;;;;13.71;100.00;101322.16;5092803;28;20073;-56
2023/05/22 06:01:17;;;;;;;64.57;45.50;;;;;;;13.80;100.00;101318.88;5092208;28;20021;-55
2023/05/22 06:03:43;;;;;;;64.60;41.88;;;;;;;13.88;100.00;101326.84;5091756;28;20035;-56
2023/05/22 06:06:08;;;;;;;67.30;43.35;;;;;;;13.98;100.00;101334.00;5092571;28;20020;-56
2023/05/22 06:08:33;;;;;;;66.25;42.28;;;;;;;14.08;100.00;101327.31;5094570;28;20023;-56
2023/05/22 06:10:59;;;;;;;57.80;40.72;;;;;;;14.14;100.00;101338.69;5095993;28;20373;-56
2023/05/22 06:13:24;;;;;;;62.67;40.25;;;;;;;14.09;100.00;101337.72;5096118;28;20162;-56
2023/05/22 06:15:50;;;;;;;57.78;40.00;;;;;;;14.13;100.00;101341.25;5096442;28;20476;-56
2023/05/22 06:18:16;;;;;;;60.22;39.72;;;;;;;14.17;100.00;101345.66;5095229;28;20090;-56
2023/05/22 06:20:41;;;;;;;59.55;40.60;;;;;;;14.19;100.00;101341.41;5096269;28;20056;-56
2023/05/22 06:23:07;;;;;;;63.80;41.17;;;;;;;14.19;100.00;101348.28;5096124;28;20097;-56
2023/05/22 06:25:33;;;;;;;61.58;39.70;;;;;;;14.39;100.00;101343.56;5095383;28;20021;-56
2023/05/22 06:27:59;;;;;;;61.53;39.95;;;;;;;14.38;100.00;101342.66;5096372;28;20024;-56
2023/05/22 06:30:25;;;;;;;55.92;37.60;;;;;;;14.40;100.00;101346.19;5095927;28;20049;-56
2023/05/22 06:32:51;;;;;;;60.70;40.22;;;;;;;14.46;100.00;101348.91;5095417;28;20024;-55
2023/05/22 06:35:17;;;;;;;53.05;38.45;;;;;;;14.70;100.00;101347.69;5095975;28;20043;-56
2023/05/22 06:37:42;;;;;;;51.22;37.17;;;;;;;14.93;100.00;101357.69;5095989;28;20020;-55
2023/05/22 06:40:08;;;;;;;52.28;38.88;;;;;;;14.98;100.00;101356.06;5095340;28;20180;-56
2023/05/22 06:42:34;;;;;;;57.30;39.40;;;;;;;14.99;100.00;101357.81;5095784;28;20056;-56
2023/05/22 06:44:59;;;;;;;52.53;37.63;;;;;;;14.91;100.00;101367.16;5095770;28;20540;-55
2023/05/22 06:47:25;;;;;;;56.55;38.78;;;;;;;14.93;100.00;101362.88;5094901;28;20468;-55
2023/05/22 06:49:50;;;;;;;59.78;39.00;;;;;;;14.96;100.00;101370.72;5095702;28;20114;-55
2023/05/22 06:52:15;;;;;;;56.08;38.10;;;;;;;14.90;100.00;101366.28;5095308;28;20044;-56
2023/05/22 06:54:41;;;;;;;59.70;40.08;;;;;;;14.91;100.00;101374.94;5095300;28;20027;-56
2023/05/22 06:57:07;;;;;;;62.53;40.00;;;;;;;14.84;100.00;101375.66;5095666;28;20099;-55
2023/05/22 06:59:33;;;;;;;60.35;39.72;;;;;;;15.04;100.00;101368.25;5094730;28;20044;-55
2023/05/22 07:01:58;;;;;;;57.58;39.50;;;;;;;14.91;100.00;101372.34;5095628;28;20391;-55
2023/05/22 07:04:23;;;;;;;60.83;38.65;;;;;;;15.07;100.00;101374.41;5095087;28;20031;-54
2023/05/22 07:06:48;;;;;;;59.53;39.67;;;;;;;15.25;100.00;101386.00;5094698;28;20438;-55
2023/05/22 07:09:14;;;;;;;54.97;36.65;;;;;;;15.20;100.00;101377.25;5095664;28;20034;-55
2023/05/22 07:11:41;;;;;;;60.95;38.10;;;;;;;15.58;100.00;101371.84;5095177;28;20020;-55
2023/05/22 07:14:07;;;;;;;53.50;36.13;;;;;;;15.85;100.00;101378.41;5094767;28;20051;-55
2023/05/22 07:16:32;;;;;;;50.13;36.10;;;;;;;15.75;100.00;101378.22;5095159;28;20472;-56
2023/05/22 07:18:58;;;;;;;53.90;36.75;;;;;;;15.62;100.00;101382.34;5094492;28;20082;-55
2023/05/22 07:21:23;;;;;;;60.63;36.50;;;;;;;15.86;100.00;101378.44;5093982;28;20028;-56
2023/05/22 07:23:50;;;;;;;59.13;36.38;;;;;;;15.88;100.00;101383.63;5094959;28;20020;-56
2023/05/22 07:26:15;;;;;;;50.10;36.35;;;;;;;15.84;100.00;101381.84;5095050;28;20032;-56
2023/05/22 07:28:40;;;;;;;54.80;36.80;;;;;;;15.78;100.00;101380.00;5094294;28;20035;-55
2023/05/22 07:31:06;;;;;;;49.50;36.80;;;;;;;15.91;100.00;101388.91;5095068;28;20537;-56
2023/05/22 07:33:31;;;;;;;52.38;36.72;;;;;;;15.95;100.00;101391.56;5094664;28;20012;-56
2023/05/22 07:35:56;;;;;;;56.08;38.03;;;;;;;15.81;100.00;101390.47;5094160;28;20024;-55
2023/05/22 07:38:22;;;;;;;51.83;37.10;;;;;;;15.99;100.00;101392.50;5094390;28;20353;-56
2023/05/22 07:40:47;;;;;;;55.10;39.28;;;;;;;16.04;100.00;101393.44;5094841;28;20050;-57
2023/05/22 07:43:14;;;;;;;59.38;39.65;;;;;;;15.94;100.00;101396.75;5093975;28;20020;-55
2023/05/22 07:45:40;;;;;;;55.20;38.75;;;;;;;15.94;100.00;101397.59;5094437;28;20024;-56
2023/05/22 07:48:06;;;;;;;55.22;37.92;;;;;;;16.13;100.00;101398.78;5094551;28;20032;-55
2023/05/22 07:50:32;;;;;;;53.53;38.10;;;;;;;16.12;100.00;101399.63;5093501;28;20472;-55
2023/05/22 07:52:57;;;;;;;57.72;39.80;;;;;;;16.07;100.00;101400.41;5094726;28;20028;-55
2023/05/22 07:55:22;;;;;;;54.83;40.17;;;;;;;16.09;100.00;101398.72;5094405;28;20353;-55
2023/05/22 07:57:48;;;;;;;60.22;38.72;;;;;;;16.23;100.00;101394.59;5093716;28;20028;-55
2023/05/22 08:00:13;;;;;;;52.60;39.50;;;;;;;16.16;100.00;101404.91;5094236;28;20098;-54
2023/05/22 08:02:40;;;;;;;59.17;40.13;;;;;;;16.32;100.00;101401.69;5093242;28;20052;-55
2023/05/22 08:05:06;;;;;;;56.08;39.15;;;;;;;16.39;100.00;101397.44;5094144;28;20036;-55
2023/05/22 08:07:32;;;;;;;52.92;38.05;;;;;;;16.76;100.00;101398.81;5094208;28;20024;-55
2023/05/22 08:09:58;;;;;;;51.85;37.85;;;;;;;16.79;100.00;101400.56;5093634;28;20093;-55
2023/05/22 08:12:23;;;;;;;53.88;38.83;;;;;;;16.88;100.00;101398.06;5093789;28;20428;-55
2023/05/22 08:14:48;;;;;;;55.50;40.65;;;;;;;16.90;100.00;101390.28;5094295;28;20067;-54
2023/05/22 08:17:13;;;;;;;57.20;40.25;;;;;;;17.11;100.00;101400.13;5093114;28;20048;-55
2023/05/22 08:19:39;;;;;;;59.70;41.92;;;;;;;17.26;100.00;101400.31;5093760;28;20047;-55
2023/05/22 08:22:04;;;;;;;56.33;43.67;;;;;;;17.25;100.00;101403.75;5094165;28;20484;-55
2023/05/22 08:24:30;;;;;;;57.47;42.03;;;;;;;17.27;100.00;101398.56;5092966;28;20468;-56
2023/05/22 08:26:57;;;;;;;59.28;43.80;;;;;;;17.27;100.00;101399.44;5093840;28;20551;-55
2023/05/22 08:29:23;;;;;;;55.50;41.35;;;;;;;17.26;100.00;101402.00;5093495;28;20107;-55
2023/05/22 08:31:48;;;;;;;67.20;44.22;;;;;;;17.10;100.00;101403.59;5092119;28;20107;-55
2023/05/22 08:34:14;;;;;;;57.30;44.67;;;;;;;17.02;100.00;101405.25;5093698;28;20016;-55
2023/05/22 08:36:39;;;;;;;63.25;44.45;;;;;;;17.13;100.00;101397.53;5093372;28;20082;-55
2023/05/22 08:39:06;;;;;;;57.28;44.63;;;;;;;17.34;100.00;101397.78;5093095;28;20020;-56
2023/05/22 08:41:31;;;;;;;59.78;45.45;;;;;;;17.47;100.00;101397.88;5093494;28;20035;-56
2023/05/22 08:43:57;;;;;;;57.70;44.40;;;;;;;17.50;100.00;101393.56;5093703;28;20096;-55
2023/05/22 08:46:25;;;;;;;65.95;45.22;;;;;;;17.59;100.00;101392.81;5092503;28;20085;-55
2023/05/22 08:48:50;;;;;;;57.40;42.45;;;;;;;18.17;100.00;101399.38;5093323;28;20520;-56
2023/05/22 08:51:18;;;;;;;64.10;45.40;;;;;;;17.92;100.00;101399.16;5093314;28;20024;-55
2023/05/22 08:53:44;;;;;;;;;;;;;;;18.28;100.00;101400.31;5093255;28;20028;-54
2023/05/22 08:56:10;;;;;;;58.85;41.83;;;;;;;18.48;100.00;101395.22;5093462;28;19912;-54
2023/05/22 08:58:37;;;;;;;58.40;42.47;;;;;;;18.58;100.00;101397.03;5093104;28;20024;-54
2023/05/22 09:01:03;;;;;;;54.28;40.75;;;;;;;18.74;100.00;101399.72;5092502;28;20059;-55
2023/05/22 09:03:31;;;;;;;60.03;42.63;;;;;;;18.79;99.62;101391.91;5092896;28;20474;-55
2023/05/22 09:06:01;;;;;;;54.05;41.00;;;;;;;18.72;100.00;101399.72;5092614;28;20052;-54
2023/05/22 09:08:27;;;;;;;51.15;39.88;;;;;;;18.59;100.00;101395.28;5092782;28;20035;-56
2023/05/22 09:10:54;;;;;;;53.97;39.95;;;;;;;18.65;99.83;101399.66;5093209;28;20077;-53
2023/05/22 09:13:28;;;;;;;52.50;41.53;;;;;;;18.58;100.00;101398.78;5092016;28;20020;-55
2023/05/22 09:15:58;;;;;;;51.92;39.03;;;;;;;18.58;100.00;101409.22;5093063;28;20020;-54
2023/05/22 09:18:27;;;;;;;52.75;40.28;;;;;;;18.97;99.08;101398.97;5092579;28;20048;-54
2023/05/22 09:20:56;;;;;;;51.13;40.28;;;;;;;18.93;99.24;101398.09;5092328;28;20028;-54
2023/05/22 09:23:22;;;;;;;54.42;42.75;;;;;;;19.11;97.17;101393.78;5092634;28;20077;-53
2023/05/22 09:25:48;;;;;;;58.10;41.38;;;;;;;19.33;97.47;101392.97;5092977;28;20053;-54
2023/05/22 09:28:13;;;;;;;54.95;41.35;;;;;;;19.54;95.49;101405.19;5092207;28;20514;-54
2023/05/22 09:30:39;;;;;;;51.50;41.33;;;;;;;20.14;95.42;101399.13;5092732;28;20524;-54
2023/05/22 09:33:07;;;;;;;54.65;39.78;;;;;;;20.70;93.74;101396.41;5092837;28;20024;-55
2023/05/22 09:35:34;;;;;;;50.90;39.83;;;;;;;20.70;91.14;101392.03;5091965;28;20033;-55
2023/05/22 09:37:59;;;;;;;51.92;39.13;;;;;;;21.10;88.40;101387.50;5093043;28;20028;-55
2023/05/22 09:40:27;;;;;;;57.25;40.10;;;;;;;21.08;87.17;101391.88;5092715;28;20031;-55
2023/05/22 09:42:53;;;;;;;52.08;39.65;;;;;;;21.36;84.59;101387.34;5094866;28;20031;-55
2023/05/22 09:45:22;;;;;;;52.08;39.13;;;;;;;20.98;84.83;101389.31;5096700;28;20032;-54
2023/05/22 09:47:49;;;;;;;52.80;36.20;;;;;;;21.20;85.26;101397.91;5097091;28;20044;-54
2023/05/22 09:50:14;;;;;;;48.13;37.80;;;;;;;21.22;85.73;101392.66;5096188;28;20020;-54
2023/05/22 09:52:42;;;;;;;51.72;38.53;;;;;;;20.89;84.50;101381.50;5096543;28;20107;-54
2023/05/22 09:55:09;;;;;;;50.80;38.17;;;;;;;20.88;84.73;101379.75;5096614;28;20028;-54
2023/05/22 09:57:44;;;;;;;50.50;37.83;;;;;;;21.94;85.42;101380.78;5096240;28;20061;-54
2023/05/22 10:00:14;;;;;;;48.15;37.58;;;;;;;21.97;84.06;101383.38;5096893;28;20024;-54
2023/05/22 10:02:48;;;;;;;54.78;37.85;;;;;;;22.05;80.34;101372.78;5095590;28;20475;-52
2023/05/22 10:05:20;;;;;;;55.25;37.70;;;;;;;21.90;81.37;101379.09;5096694;28;20066;-54
2023/05/22 10:08:01;;;;;;;55.40;36.95;;;;;;;22.12;81.02;101376.25;5096649;28;20074;-54
2023/05/22 10:10:26;;;;;;;49.53;36.53;;;;;;;22.45;81.70;101382.94;5095676;28;20027;-54
2023/05/22 10:12:56;;;;;;;51.88;38.60;;;;;;;22.53;78.96;101390.72;5096533;28;20392;-54
2023/05/22 10:15:21;;;;;;;54.58;40.35;;;;;;;22.33;77.63;101381.25;5096216;28;20379;-54
2023/05/22 10:17:48;;;;;;;51.70;39.28;;;;;;;22.21;77.38;101373.53;5095565;28;20487;-54
2023/05/22 10:20:17;;;;;;;53.22;37.55;;;;;;;22.92;77.62;101377.97;5096453;28;20027;-53
2023/05/22 10:22:44;;;;;;;52.92;38.83;;;;;;;23.51;75.49;101377.13;5096420;28;20437;-53
2023/05/22 10:25:10;;;;;;;56.22;39.28;;;;;;;23.86;69.07;101380.97;5095625;28;20051;-52
2023/05/22 10:27:36;;;;;;;51.30;37.20;;;;;;;24.15;68.09;101372.53;5096079;28;20396;-53
2023/05/22 10:30:09;;;;;;;52.30;37.33;;;;;;;24.69;65.38;101375.03;5096236;28;20073;-53
2023/05/22 10:32:41;;;;;;;51.10;37.75;;;;;;;25.55;63.89;101378.41;5095086;28;20032;-53
2023/05/22 10:35:24;;;;;;;51.58;36.85;;;;;;;25.31;66.40;101385.97;5095968;28;20528;-53
2023/05/22 10:37:52;;;;;;;50.40;36.95;;;;;;;25.28;62.47;101380.78;5095404;28;20034;-53
2023/05/22 10:40:20;;;;;;;50.83;35.65;;;;;;;25.14;61.60;101377.59;5095689;28;20073;-53
2023/05/22 10:42:46;;;;;;;49.83;35.28;;;;;;;24.95;61.10;101372.72;5095951;28;20028;-53
2023/05/22 10:45:12;;;;;;;51.92;36.22;;;;;;;24.52;63.40;101372.72;5095064;28;20032;-54
2023/05/22 10:47:37;;;;;;;47.97;35.13;;;;;;;24.75;64.76;101369.66;5095631;28;20108;-53
2023/05/22 10:50:07;;;;;;;48.25;34.30;;;;;;;25.57;62.70;101365.19;5095945;28;20031;-54
2023/05/22 10:52:34;;;;;;;48.08;34.20;;;;;;;25.12;60.73;101367.06;5094831;28;20048;-54
2023/05/22 10:55:00;;;;;;;47.42;35.50;;;;;;;24.93;61.29;101364.00;5094991;28;20030;-54
2023/05/22 10:57:30;;;;;;;45.42;34.60;;;;;;;25.10;62.15;101360.09;5095383;28;20094;-54
2023/05/22 11:00:08;;;;;;;41.90;32.50;;;;;;;25.60;61.76;101365.97;5094804;28;20059;-53
2023/05/22 11:02:38;;;;;;;43.55;31.50;;;;;;;26.13;58.78;101365.50;5095444;28;20039;-54
2023/05/22 11:05:26;;;;;;;42.35;33.67;;;;;;;26.29;58.47;101360.66;5095461;28;20375;-53